createdAt,value
2022-07-30T00:01:35.776Z,9.15
2022-07-30T00:04:03.483Z,9.25
2022-07-30T00:06:30.502Z,9.77
2022-07-30T00:08:57.464Z,8.90
2022-07-30T00:11:27.600Z,10.20
2022-07-30T00:13:54.919Z,9.40
2022-07-30T00:16:21.798Z,9.20
2022-07-30T00:18:48.584Z,9.10
2022-07-30T00:21:20.157Z,9.40
2022-07-30T00:24:02.579Z,9.10
2022-07-30T00:26:29.474Z,8.85
2022-07-30T00:28:56.165Z,9.10
2022-07-30T00:31:23.049Z,8.50
2022-07-30T00:33:49.742Z,9.68
2022-07-30T00:36:16.557Z,8.60
2022-07-30T00:38:43.314Z,8.77
2022-07-30T00:41:10.000Z,9.70
2022-07-30T00:43:36.759Z,8.60
2022-07-30T00:46:03.585Z,8.25
2022-07-30T00:48:30.471Z,8.38
2022-07-30T00:50:57.281Z,7.72
2022-07-30T00:53:25.128Z,7.80
2022-07-30T00:55:51.900Z,7.60
2022-07-30T00:58:18.700Z,7.40
2022-07-30T01:00:45.523Z,7.28
2022-07-30T01:03:12.290Z,7.20
2022-07-30T01:05:39.084Z,6.93
2022-07-30T01:08:05.949Z,6.72
2022-07-30T01:10:32.780Z,6.23
2022-07-30T01:13:01.937Z,6.60
2022-07-30T01:15:28.907Z,5.67
2022-07-30T01:17:59.957Z,5.23
2022-07-30T01:20:33.286Z,5.70
2022-07-30T01:23:14.665Z,5.50
2022-07-30T01:25:41.419Z,5.53
2022-07-30T01:28:12.429Z,5.03
2022-07-30T01:30:42.234Z,5.20
2022-07-30T01:33:14.964Z,5.30
2022-07-30T01:35:44.450Z,4.90
2022-07-30T01:38:12.620Z,5.27
2022-07-30T01:40:40.957Z,5.32
2022-07-30T01:43:08.891Z,5.82
2022-07-30T01:45:42.031Z,5.65
2022-07-30T01:48:13.590Z,5.20
2022-07-30T01:50:44.596Z,5.15
2022-07-30T01:53:16.732Z,5.43
2022-07-30T01:55:44.845Z,5.10
2022-07-30T01:58:12.988Z,5.20
2022-07-30T02:00:43.316Z,5.20
2022-07-30T02:03:11.113Z,5.30
2022-07-30T02:05:41.174Z,5.20
2022-07-30T02:08:37.867Z,5.40
2022-07-30T02:11:10.078Z,5.50
2022-07-30T02:13:50.526Z,5.97
2022-07-30T02:16:22.704Z,5.22
2022-07-30T02:18:59.242Z,5.20
2022-07-30T02:21:36.797Z,5.50
2022-07-30T02:24:08.462Z,5.38
2022-07-30T02:26:38.090Z,5.50
2022-07-30T02:29:11.065Z,5.30
2022-07-30T02:31:40.566Z,5.10
2022-07-30T02:34:08.844Z,5.35
2022-07-30T02:36:36.700Z,5.60
2022-07-30T02:39:05.033Z,5.78
2022-07-30T02:41:32.715Z,5.40
2022-07-30T02:44:00.803Z,5.85
2022-07-30T02:46:28.519Z,5.40
2022-07-30T02:48:57.541Z,6.03
2022-07-30T02:51:27.865Z,5.70
2022-07-30T02:53:55.425Z,5.90
2022-07-30T02:56:22.760Z,5.97
2022-07-30T02:58:52.217Z,6.43
2022-07-30T03:01:21.691Z,6.45
2022-07-30T03:03:49.669Z,6.57
2022-07-30T03:06:18.571Z,7.30
2022-07-30T03:08:46.354Z,6.50
2022-07-30T03:11:14.045Z,6.40
2022-07-30T03:13:40.823Z,6.90
2022-07-30T03:16:10.724Z,6.70
2022-07-30T03:18:39.130Z,7.22
2022-07-30T03:21:09.847Z,6.83
2022-07-30T03:23:37.910Z,7.45
2022-07-30T03:26:07.124Z,7.00
2022-07-30T03:28:40.619Z,7.50
2022-07-30T03:31:08.506Z,7.47
2022-07-30T03:33:38.672Z,7.05
2022-07-30T03:36:08.316Z,6.90
2022-07-30T03:38:37.788Z,7.30
2022-07-30T03:41:05.586Z,7.03
2022-07-30T03:43:34.207Z,7.27
2022-07-30T03:46:05.090Z,7.68
2022-07-30T03:48:34.250Z,7.40
2022-07-30T03:51:04.040Z,7.30
2022-07-30T03:53:31.790Z,7.38
2022-07-30T03:55:59.285Z,7.22
2022-07-30T03:58:26.214Z,7.00
2022-07-30T04:00:52.904Z,7.57
2022-07-30T04:03:32.264Z,7.80
2022-07-30T04:05:59.426Z,7.32
2022-07-30T04:08:28.385Z,7.00
2022-07-30T04:10:55.353Z,6.82
2022-07-30T04:13:22.044Z,7.00
2022-07-30T04:16:34.342Z,7.10
2022-07-30T04:18:56.296Z,6.77
2022-07-30T04:21:25.745Z,6.75
2022-07-30T04:24:04.266Z,6.80
2022-07-30T04:26:34.262Z,6.70
2022-07-30T04:29:02.209Z,6.90
2022-07-30T04:31:29.898Z,6.30
2022-07-30T04:33:58.825Z,6.47
2022-07-30T04:36:33.042Z,6.40
2022-07-30T04:39:00.723Z,6.50
2022-07-30T04:41:27.493Z,7.00
2022-07-30T04:43:54.318Z,6.55
2022-07-30T04:46:24.519Z,6.50
2022-07-30T04:48:51.681Z,7.05
2022-07-30T04:51:28.472Z,6.40
2022-07-30T04:53:57.357Z,6.50
2022-07-30T04:56:25.509Z,6.47
2022-07-30T04:58:53.478Z,6.35
2022-07-30T05:01:24.396Z,6.10
2022-07-30T05:04:10.333Z,6.60
2022-07-30T05:06:39.554Z,6.47
2022-07-30T05:09:06.420Z,6.45
2022-07-30T05:11:33.427Z,6.80
2022-07-30T05:14:00.210Z,6.50
2022-07-30T05:16:27.642Z,6.60
2022-07-30T05:18:54.509Z,6.77
2022-07-30T05:21:21.262Z,6.00
2022-07-30T05:23:50.421Z,7.03
2022-07-30T05:26:21.582Z,6.57
2022-07-30T05:28:53.574Z,7.00
2022-07-30T05:31:22.249Z,7.22
2022-07-30T05:33:49.032Z,6.97
2022-07-30T05:36:15.916Z,7.35
2022-07-30T05:38:42.655Z,7.10
2022-07-30T05:41:30.616Z,7.25
2022-07-30T05:43:56.949Z,7.05
2022-07-30T05:46:24.241Z,7.60
2022-07-30T05:48:51.216Z,6.68
2022-07-30T05:51:19.707Z,6.47
2022-07-30T05:53:46.809Z,6.30
2022-07-30T05:56:13.544Z,7.00
2022-07-30T05:58:40.438Z,7.97
2022-07-30T06:01:07.135Z,7.50
2022-07-30T06:03:34.873Z,7.30
2022-07-30T06:06:04.971Z,7.05
2022-07-30T06:08:32.033Z,6.90
2022-07-30T06:10:59.185Z,6.82
2022-07-30T06:13:26.461Z,6.40
2022-07-30T06:15:53.331Z,6.13
2022-07-30T06:18:20.229Z,6.50
2022-07-30T06:20:52.042Z,6.65
2022-07-30T06:23:19.245Z,5.83
2022-07-30T06:25:47.155Z,6.07
2022-07-30T06:28:36.607Z,6.72
2022-07-30T06:31:02.445Z,6.55
2022-07-30T06:33:29.420Z,5.32
2022-07-30T06:35:56.149Z,6.88
2022-07-30T06:38:22.919Z,5.50
2022-07-30T06:40:49.728Z,4.80
2022-07-30T06:43:16.565Z,5.63
2022-07-30T06:45:43.713Z,5.40
2022-07-30T06:48:10.943Z,5.10
2022-07-30T06:50:37.667Z,5.80
2022-07-30T06:53:04.498Z,5.10
2022-07-30T06:55:31.296Z,5.20
2022-07-30T06:57:58.047Z,5.20
2022-07-30T07:00:25.210Z,5.15
2022-07-30T07:02:51.923Z,5.30
2022-07-30T07:05:18.826Z,4.60
2022-07-30T07:07:56.488Z,5.90
2022-07-30T07:10:25.825Z,5.72
2022-07-30T07:12:52.640Z,5.72
2022-07-30T07:15:19.616Z,6.20
2022-07-30T07:17:49.205Z,4.88
2022-07-30T07:20:16.034Z,4.90
2022-07-30T07:22:43.305Z,5.43
2022-07-30T07:25:12.122Z,6.43
2022-07-30T07:27:39.031Z,5.68
2022-07-30T07:30:06.486Z,5.60
2022-07-30T07:32:35.346Z,5.90
2022-07-30T07:35:02.524Z,5.50
2022-07-30T07:37:29.741Z,6.20
2022-07-30T07:39:56.438Z,5.70
2022-07-30T07:42:23.564Z,5.95
2022-07-30T07:44:50.417Z,5.80
2022-07-30T07:47:17.290Z,5.10
2022-07-30T07:49:44.045Z,5.57
2022-07-30T07:52:10.813Z,5.30
2022-07-30T07:54:37.540Z,5.35
2022-07-30T07:57:07.939Z,5.50
2022-07-30T07:59:40.550Z,5.03
2022-07-30T08:02:08.664Z,5.00
2022-07-30T08:04:36.074Z,5.00
2022-07-30T08:07:03.757Z,4.90
2022-07-30T08:09:43.750Z,4.63
2022-07-30T08:12:14.434Z,4.40
2022-07-30T08:14:41.241Z,4.80
2022-07-30T08:17:08.828Z,4.50
2022-07-30T08:19:35.941Z,4.63
2022-07-30T08:22:02.704Z,4.43
2022-07-30T08:24:29.563Z,4.00
2022-07-30T08:26:56.274Z,4.30
2022-07-30T08:29:23.089Z,4.10
2022-07-30T08:31:49.909Z,3.95
2022-07-30T08:34:16.706Z,3.88
2022-07-30T08:36:43.566Z,4.10
2022-07-30T08:39:10.325Z,4.10
2022-07-30T08:41:37.507Z,4.25
2022-07-30T08:44:08.914Z,3.90
2022-07-30T08:46:47.509Z,4.00
2022-07-30T08:49:15.734Z,4.40
2022-07-30T08:51:42.827Z,4.28
2022-07-30T08:54:09.686Z,4.00
2022-07-30T08:56:36.929Z,3.65
2022-07-30T08:59:04.192Z,3.80
2022-07-30T09:01:30.978Z,3.60
2022-07-30T09:03:57.886Z,4.20
2022-07-30T09:06:24.637Z,3.70
2022-07-30T09:08:51.425Z,3.88
2022-07-30T09:11:18.280Z,4.43
2022-07-30T09:13:45.123Z,4.03
2022-07-30T09:16:26.503Z,3.53
2022-07-30T09:18:54.840Z,3.72
2022-07-30T09:21:26.679Z,3.70
2022-07-30T09:24:03.860Z,3.50
2022-07-30T09:26:33.019Z,3.60
2022-07-30T09:29:16.916Z,3.95
2022-07-30T09:32:01.489Z,3.95
2022-07-30T09:34:36.149Z,3.67
2022-07-30T09:37:10.707Z,3.90
2022-07-30T09:39:42.038Z,3.60
2022-07-30T09:42:21.250Z,3.25
2022-07-30T09:44:49.002Z,3.70
2022-07-30T09:47:38.213Z,3.90
2022-07-30T09:50:08.293Z,3.50
2022-07-30T09:52:35.561Z,3.67
2022-07-30T09:55:03.583Z,3.03
2022-07-30T09:57:30.674Z,3.65
2022-07-30T10:00:17.171Z,3.53
2022-07-30T10:02:45.620Z,2.85
2022-07-30T10:05:16.395Z,3.10
2022-07-30T10:08:09.120Z,3.20
2022-07-30T10:10:47.019Z,2.90
2022-07-30T10:13:20.857Z,3.50
2022-07-30T10:15:50.202Z,3.00
2022-07-30T10:18:18.238Z,3.50
2022-07-30T10:20:45.860Z,3.30
2022-07-30T10:23:15.586Z,3.28
2022-07-30T10:25:54.955Z,3.17
2022-07-30T10:28:24.221Z,3.10
2022-07-30T10:30:53.038Z,3.40
2022-07-30T10:33:37.769Z,3.67
2022-07-30T10:36:10.362Z,2.65
2022-07-30T10:38:41.639Z,3.40
2022-07-30T10:41:42.505Z,3.70
2022-07-30T10:44:32.047Z,3.10
2022-07-30T10:47:08.257Z,3.00
2022-07-30T10:49:41.438Z,3.25
2022-07-30T10:52:10.746Z,3.03
2022-07-30T10:54:42.461Z,3.40
2022-07-30T10:57:31.603Z,3.38
2022-07-30T10:59:59.980Z,3.95
2022-07-30T11:02:35.817Z,3.30
2022-07-30T11:05:18.291Z,2.50
2022-07-30T11:07:47.457Z,3.10
2022-07-30T11:10:50.059Z,3.38
2022-07-30T11:13:16.854Z,3.10
2022-07-30T11:15:57.459Z,2.80
2022-07-30T11:18:27.093Z,3.63
2022-07-30T11:21:21.227Z,3.40
2022-07-30T11:23:48.384Z,3.00
2022-07-30T11:26:38.743Z,3.30
2022-07-30T11:29:33.058Z,3.10
2022-07-30T11:32:32.003Z,2.80
2022-07-30T11:35:14.818Z,2.80
2022-07-30T11:38:07.604Z,2.70
2022-07-30T11:40:46.438Z,2.45
2022-07-30T11:43:34.963Z,2.60
2022-07-30T11:46:06.179Z,2.60
2022-07-30T11:48:33.834Z,2.40
2022-07-30T11:51:03.991Z,2.90
2022-07-30T11:53:31.468Z,2.45
2022-07-30T11:56:00.710Z,2.35
2022-07-30T11:58:39.699Z,2.22
2022-07-30T12:01:13.160Z,2.40
2022-07-30T12:03:41.362Z,2.60
2022-07-30T12:06:13.698Z,2.13
2022-07-30T12:08:45.951Z,2.15
2022-07-30T12:11:12.908Z,2.40
2022-07-30T12:13:44.619Z,2.40
2022-07-30T12:16:16.302Z,1.90
2022-07-30T12:18:44.056Z,2.20
2022-07-30T12:21:12.803Z,2.20
2022-07-30T12:23:41.928Z,2.10
2022-07-30T12:26:09.389Z,2.58
2022-07-30T12:28:36.711Z,2.60
2022-07-30T12:31:04.351Z,2.53
2022-07-30T12:33:32.747Z,2.70
2022-07-30T12:36:00.919Z,2.03
2022-07-30T12:38:28.643Z,2.10
2022-07-30T12:40:59.901Z,2.20
2022-07-30T12:43:43.164Z,2.40
2022-07-30T12:46:14.761Z,2.45
2022-07-30T12:48:52.019Z,2.00
2022-07-30T12:51:19.670Z,1.98
2022-07-30T12:53:47.926Z,2.00
2022-07-30T12:56:17.479Z,2.00
2022-07-30T12:58:44.843Z,2.00
2022-07-30T13:01:13.978Z,2.17
2022-07-30T13:03:41.201Z,2.10
2022-07-30T13:06:23.527Z,1.92
2022-07-30T13:08:56.085Z,2.00
2022-07-30T13:11:28.027Z,2.10
2022-07-30T13:13:55.301Z,2.10
2022-07-30T13:16:22.293Z,2.00
2022-07-30T13:18:49.090Z,2.33
2022-07-30T13:21:16.117Z,2.00
2022-07-30T13:23:42.879Z,2.20
2022-07-30T13:26:10.919Z,1.90
2022-07-30T13:28:37.945Z,2.40
2022-07-30T13:31:04.765Z,2.20
2022-07-30T13:33:31.642Z,2.10
2022-07-30T13:35:59.122Z,2.00
2022-07-30T13:38:26.260Z,2.20
2022-07-30T13:40:53.355Z,2.10
2022-07-30T13:43:20.402Z,2.00
2022-07-30T13:45:48.061Z,2.20
2022-07-30T13:48:15.171Z,1.92
2022-07-30T13:50:42.569Z,1.73
2022-07-30T13:53:10.227Z,2.20
2022-07-30T13:55:38.380Z,2.00
2022-07-30T13:58:06.752Z,2.00
2022-07-30T14:00:36.541Z,1.50
2022-07-30T14:03:05.878Z,2.10
2022-07-30T14:05:35.924Z,1.90
2022-07-30T14:08:10.277Z,2.00
2022-07-30T14:10:38.085Z,2.10
2022-07-30T14:13:06.599Z,2.00
2022-07-30T14:15:33.735Z,2.10
2022-07-30T14:18:01.739Z,2.28
2022-07-30T14:20:29.284Z,2.30
2022-07-30T14:22:56.851Z,2.00
2022-07-30T14:25:23.995Z,2.03
2022-07-30T14:27:50.975Z,1.70
2022-07-30T14:30:17.864Z,2.10
2022-07-30T14:32:45.205Z,2.00
2022-07-30T14:35:12.041Z,2.17
2022-07-30T14:37:40.220Z,1.90
2022-07-30T14:40:09.984Z,1.90
2022-07-30T14:42:36.909Z,1.70
2022-07-30T14:45:04.959Z,1.67
2022-07-30T14:47:31.903Z,1.95
2022-07-30T14:49:59.040Z,1.83
2022-07-30T14:52:27.657Z,1.80
2022-07-30T14:54:54.413Z,1.80
2022-07-30T14:57:21.283Z,1.90
2022-07-30T14:59:48.036Z,1.80
2022-07-30T15:02:15.551Z,1.75
2022-07-30T15:04:42.329Z,2.00
2022-07-30T15:07:09.161Z,1.70
2022-07-30T15:09:35.945Z,1.60
2022-07-30T15:12:08.758Z,1.60
2022-07-30T15:14:40.280Z,1.70
2022-07-30T15:17:08.464Z,1.70
2022-07-30T15:19:35.484Z,1.63
2022-07-30T15:22:03.104Z,1.60
2022-07-30T15:24:31.160Z,1.73
2022-07-30T15:26:59.009Z,1.60
2022-07-30T15:29:28.082Z,1.50
2022-07-30T15:31:54.896Z,1.80
2022-07-30T15:34:22.453Z,1.60
2022-07-30T15:36:49.176Z,2.00
2022-07-30T15:39:15.970Z,1.80
2022-07-30T15:41:42.896Z,1.70
2022-07-30T15:44:09.735Z,2.00
2022-07-30T15:46:36.556Z,2.13
2022-07-30T15:49:03.510Z,2.00
2022-07-30T15:51:32.576Z,1.55
2022-07-30T15:53:59.812Z,2.00
2022-07-30T15:56:28.269Z,2.10
2022-07-30T15:58:55.452Z,1.75
2022-07-30T16:01:22.437Z,1.95
2022-07-30T16:03:49.165Z,2.60
2022-07-30T16:06:15.909Z,2.10
2022-07-30T16:08:42.734Z,2.30
2022-07-30T16:11:11.029Z,2.30
2022-07-30T16:13:37.973Z,2.03
2022-07-30T16:16:05.087Z,1.80
2022-07-30T16:18:31.865Z,2.30
2022-07-30T16:21:01.207Z,2.30
2022-07-30T16:23:31.188Z,1.90
2022-07-30T16:26:03.926Z,2.10
2022-07-30T16:28:30.893Z,1.90
2022-07-30T16:30:57.873Z,2.00
2022-07-30T16:33:24.931Z,2.25
2022-07-30T16:35:51.831Z,1.90
2022-07-30T16:38:19.874Z,2.10
2022-07-30T16:40:46.945Z,1.90
2022-07-30T16:43:15.541Z,1.80
2022-07-30T16:45:43.785Z,1.70
2022-07-30T16:48:11.459Z,2.00
2022-07-30T16:50:40.720Z,2.38
2022-07-30T16:53:13.319Z,3.97
2022-07-30T16:55:41.576Z,1.80
2022-07-30T16:58:08.649Z,2.20
2022-07-30T17:00:35.502Z,2.60
2022-07-30T17:03:02.538Z,2.90
2022-07-30T17:05:29.280Z,3.70
2022-07-30T17:07:56.690Z,2.50
2022-07-30T17:10:25.724Z,2.60
2022-07-30T17:12:53.499Z,2.80
2022-07-30T17:15:20.536Z,2.42
2022-07-30T17:17:59.183Z,6.85
2022-07-30T17:20:25.965Z,2.10
2022-07-30T17:22:55.251Z,2.00
2022-07-30T17:25:23.250Z,2.20
2022-07-30T17:27:50.079Z,2.40
2022-07-30T17:30:16.880Z,2.20
2022-07-30T17:32:43.647Z,2.30
2022-07-30T17:35:13.884Z,2.50
2022-07-30T17:37:41.050Z,2.50
2022-07-30T17:40:29.495Z,3.00
2022-07-30T17:42:55.639Z,2.40
2022-07-30T17:45:22.675Z,2.60
2022-07-30T17:47:49.489Z,2.55
2022-07-30T17:50:17.079Z,2.20
2022-07-30T17:52:43.839Z,2.50
2022-07-30T17:55:13.019Z,2.50
2022-07-30T17:57:40.016Z,2.35
2022-07-30T18:00:09.069Z,2.35
2022-07-30T18:02:35.917Z,3.22
2022-07-30T18:05:02.812Z,3.80
2022-07-30T18:07:29.697Z,3.08
2022-07-30T18:09:56.466Z,3.00
2022-07-30T18:12:23.386Z,3.20
2022-07-30T18:14:50.395Z,2.70
2022-07-30T18:17:17.207Z,2.60
2022-07-30T18:19:44.169Z,2.65
2022-07-30T18:22:14.575Z,2.30
2022-07-30T18:24:43.880Z,2.30
2022-07-30T18:27:14.500Z,2.53
2022-07-30T18:29:41.774Z,2.17
2022-07-30T18:32:09.026Z,2.30
2022-07-30T18:34:36.283Z,2.20
2022-07-30T18:37:03.257Z,2.50
2022-07-30T18:39:30.039Z,2.15
2022-07-30T18:41:58.112Z,2.30
2022-07-30T18:44:24.858Z,1.97
2022-07-30T18:46:51.654Z,2.50
2022-07-30T18:49:36.224Z,2.20
2022-07-30T18:52:04.923Z,2.47
2022-07-30T18:54:32.039Z,2.13
2022-07-30T18:56:58.812Z,2.50
2022-07-30T18:59:25.704Z,2.60
2022-07-30T19:01:52.452Z,2.50
2022-07-30T19:04:19.290Z,2.47
2022-07-30T19:06:46.241Z,2.50
2022-07-30T19:09:17.590Z,2.60
2022-07-30T19:11:46.004Z,2.53
2022-07-30T19:14:14.125Z,3.00
2022-07-30T19:16:42.270Z,2.10
2022-07-30T19:19:10.283Z,2.45
2022-07-30T19:21:37.018Z,3.80
2022-07-30T19:24:04.425Z,3.75
2022-07-30T19:26:31.276Z,3.50
2022-07-30T19:28:58.653Z,3.17
2022-07-30T19:31:26.463Z,3.25
2022-07-30T19:33:53.349Z,2.88
2022-07-30T19:36:23.171Z,3.07
2022-07-30T19:38:50.154Z,2.80
2022-07-30T19:41:16.995Z,2.80
2022-07-30T19:43:55.639Z,3.37
2022-07-30T19:46:25.064Z,3.40
2022-07-30T19:48:51.902Z,3.50
2022-07-30T19:51:21.004Z,3.20
2022-07-30T19:53:52.161Z,3.70
2022-07-30T19:56:19.519Z,5.32
2022-07-30T19:58:46.401Z,5.35
2022-07-30T20:01:15.776Z,5.70
2022-07-30T20:03:45.361Z,6.30
2022-07-30T20:06:15.104Z,4.88
2022-07-30T20:08:44.758Z,4.20
2022-07-30T20:11:16.433Z,4.65
2022-07-30T20:13:59.077Z,3.55
2022-07-30T20:16:26.113Z,3.45
2022-07-30T20:18:54.560Z,3.30
2022-07-30T20:21:21.409Z,4.20
2022-07-30T20:24:08.520Z,3.72
2022-07-30T20:26:35.903Z,3.67
2022-07-30T20:29:02.809Z,3.20
2022-07-30T20:31:36.058Z,4.10
2022-07-30T20:34:04.811Z,3.10
2022-07-30T20:36:43.141Z,3.40
2022-07-30T20:39:13.360Z,3.42
2022-07-30T20:41:45.067Z,3.97
2022-07-30T20:44:23.158Z,3.80
2022-07-30T20:46:50.919Z,4.30
2022-07-30T20:49:24.190Z,4.00
2022-07-30T20:52:01.782Z,4.70
2022-07-30T20:54:30.784Z,4.00
2022-07-30T20:56:58.991Z,4.80
2022-07-30T20:59:26.857Z,4.50
2022-07-30T21:01:55.844Z,4.60
2022-07-30T21:04:23.778Z,4.95
2022-07-30T21:06:52.749Z,4.75
2022-07-30T21:09:20.293Z,4.75
2022-07-30T21:11:50.677Z,4.60
2022-07-30T21:14:18.341Z,4.63
2022-07-30T21:16:47.287Z,4.60
2022-07-30T21:19:16.480Z,5.40
2022-07-30T21:21:47.886Z,5.20
2022-07-30T21:24:18.810Z,5.10
2022-07-30T21:26:48.932Z,4.50
2022-07-30T21:29:16.202Z,4.80
2022-07-30T21:32:09.401Z,5.20
2022-07-30T21:34:35.860Z,4.73
2022-07-30T21:37:07.621Z,5.43
2022-07-30T21:39:39.799Z,4.80
2022-07-30T21:42:08.204Z,4.57
2022-07-30T21:44:35.775Z,4.28
2022-07-30T21:47:05.192Z,4.40
2022-07-30T21:49:37.250Z,4.47
2022-07-30T21:52:05.176Z,5.15
2022-07-30T21:54:37.494Z,4.85
2022-07-30T21:57:12.799Z,5.38
2022-07-30T21:59:40.663Z,5.75
2022-07-30T22:04:54.319Z,5.18
2022-07-30T22:07:21.919Z,5.10
2022-07-30T22:09:49.097Z,5.93
2022-07-30T22:12:18.095Z,5.00
2022-07-30T22:14:46.998Z,4.90
2022-07-30T22:17:23.575Z,5.10
2022-07-30T22:20:05.060Z,5.18
2022-07-30T22:22:37.607Z,5.25
2022-07-30T22:25:06.881Z,5.47
2022-07-30T22:27:39.481Z,5.50
2022-07-30T22:30:08.414Z,5.20
2022-07-30T22:32:35.388Z,6.60
2022-07-30T22:35:02.369Z,5.65
2022-07-30T22:37:32.815Z,6.15
2022-07-30T22:40:01.687Z,6.50
2022-07-30T22:42:28.611Z,6.65
2022-07-30T22:44:55.684Z,6.50
2022-07-30T22:47:51.317Z,6.50
2022-07-30T22:50:11.812Z,6.30
2022-07-30T22:52:39.990Z,7.00
2022-07-30T22:55:22.190Z,6.30
2022-07-30T22:57:49.977Z,6.23
2022-07-30T23:00:28.019Z,6.10
2022-07-30T23:02:56.694Z,5.82
2022-07-30T23:05:24.261Z,5.72
2022-07-30T23:07:51.544Z,6.60
2022-07-30T23:10:20.736Z,5.90
2022-07-30T23:12:32.552Z,5.30
2022-07-30T23:12:51.554Z,6.35
2022-07-30T23:15:19.946Z,6.60
2022-07-30T23:17:47.086Z,5.75
2022-07-30T23:20:16.593Z,6.47
2022-07-30T23:22:43.911Z,6.00
2022-07-30T23:25:11.618Z,5.70
2022-07-30T23:27:39.374Z,6.40
2022-07-30T23:30:08.437Z,6.40
2022-07-30T23:32:35.775Z,6.20
2022-07-30T23:35:02.684Z,5.70
2022-07-30T23:37:29.460Z,6.35
2022-07-30T23:40:14.729Z,6.13
2022-07-30T23:42:41.484Z,6.38
2022-07-30T23:45:08.460Z,6.20
2022-07-30T23:47:56.505Z,5.87
2022-07-30T23:50:22.313Z,5.70
2022-07-30T23:52:49.056Z,6.60
2022-07-30T23:55:15.858Z,6.32
2022-07-30T23:57:42.727Z,6.50
